Time;durP1;ratioP1;P1;durP2;ratioP2;P2;SDS_P1;SDS_P2;PMS_P1;PMS_P2;Temp;Humidity;BMP_temperature;BMP_pressure;BME280_temperature;BME280_humidity;BME280_pressure;Samples;Min_cycle;Max_cycle;Signal;HPM_P1;HPM_P2
2021/12/21 00:00:44;;;;;;;20.10;11.73;;;-2.20;99.90;;;;;;5047485;28;20465;-64
2021/12/21 00:03:11;;;;;;;16.00;11.87;;;-2.20;99.90;;;;;;5047124;28;20468;-64
2021/12/21 00:05:39;;;;;;;20.47;11.83;;;-2.20;99.90;;;;;;5046983;28;21049;-64
2021/12/21 00:08:08;;;;;;;20.27;12.13;;;-2.20;99.90;;;;;;5046590;28;20455;-64
2021/12/21 00:10:36;;;;;;;17.33;12.00;;;-2.10;99.90;;;;;;5046999;28;21281;-64
2021/12/21 00:13:08;;;;;;;21.63;12.43;;;-2.20;99.90;;;;;;5047133;28;20468;-64
2021/12/21 00:15:46;;;;;;;14.07;10.63;;;-2.20;99.90;;;;;;5046822;28;20969;-64
2021/12/21 00:18:31;;;;;;;22.80;12.80;;;-2.30;99.90;;;;;;5046609;28;21289;-63
2021/12/21 00:21:06;;;;;;;22.37;12.90;;;-2.30;99.90;;;;;;5046977;28;20513;-64
2021/12/21 00:23:35;;;;;;;16.53;11.70;;;-2.30;99.90;;;;;;5047042;28;20731;-64
2021/12/21 00:26:06;;;;;;;27.77;13.73;;;-2.40;99.90;;;;;;5046892;28;20955;-64
2021/12/21 00:28:38;;;;;;;24.00;14.40;;;-2.30;99.90;;;;;;5046941;28;20654;-63
2021/12/21 00:31:05;;;;;;;20.37;13.93;;;-2.30;99.90;;;;;;5043974;28;20543;-65
2021/12/21 00:33:32;;;;;;;18.40;11.60;;;-2.30;99.90;;;;;;5043416;28;20465;-64
2021/12/21 00:36:00;;;;;;;19.47;13.57;;;-2.30;99.90;;;;;;5044313;28;20452;-64
2021/12/21 00:38:28;;;;;;;22.87;14.47;;;-2.40;99.90;;;;;;5043603;28;20560;-62
2021/12/21 00:40:55;;;;;;;20.17;13.40;;;-2.40;99.90;;;;;;5044275;28;20522;-62
2021/12/21 00:43:21;;;;;;;17.53;12.20;;;-2.40;99.90;;;;;;5043987;28;21201;-62
2021/12/21 00:45:48;;;;;;;17.07;12.63;;;-2.40;99.90;;;;;;5043797;28;20467;-62
2021/12/21 00:48:16;;;;;;;16.23;12.63;;;-2.40;99.90;;;;;;5043004;28;21001;-63
2021/12/21 00:50:44;;;;;;;16.67;11.70;;;-2.40;99.90;;;;;;5043582;28;20452;-63
2021/12/21 00:53:13;;;;;;;24.40;12.53;;;-2.40;99.90;;;;;;5043377;28;20468;-63
2021/12/21 00:55:40;;;;;;;20.00;12.40;;;-2.50;99.90;;;;;;5043277;28;20726;-65
2021/12/21 00:58:07;;;;;;;18.20;11.87;;;-2.50;99.90;;;;;;5043392;28;20436;-64
2021/12/21 01:00:34;;;;;;;17.73;11.37;;;-2.60;99.90;;;;;;5043371;28;20437;-62
2021/12/21 01:03:07;;;;;;;17.70;12.77;;;-2.70;99.90;;;;;;5043560;28;20467;-63
2021/12/21 01:05:42;;;;;;;18.23;11.43;;;-2.60;99.90;;;;;;5043073;28;20472;-63
2021/12/21 01:08:13;;;;;;;19.40;11.40;;;-2.60;99.90;;;;;;5042801;28;20443;-63
2021/12/21 01:10:55;;;;;;;18.73;12.43;;;-2.70;99.90;;;;;;5043478;28;20550;-63
2021/12/21 01:13:37;;;;;;;23.57;13.43;;;-2.70;99.90;;;;;;5042814;28;20551;-62
2021/12/21 01:21:38;;;;;;;24.80;13.27;;;-2.60;99.90;;;;;;5039221;28;20473;-63
2021/12/21 01:24:27;;;;;;;19.70;13.00;;;-2.70;99.90;;;;;;5043553;28;20891;-63
2021/12/21 01:29:48;;;;;;;20.97;11.70;;;-2.80;99.90;;;;;;5042110;28;20440;-63
2021/12/21 01:32:23;;;;;;;19.03;11.30;;;-2.80;99.90;;;;;;5042474;28;20621;-62
2021/12/21 01:34:58;;;;;;;13.47;11.47;;;-2.90;99.90;;;;;;5042737;28;20490;-63
2021/12/21 01:37:33;;;;;;;18.63;11.70;;;-2.80;99.90;;;;;;5042519;28;21148;-63
2021/12/21 01:40:17;;;;;;;20.00;11.20;;;-2.70;99.90;;;;;;5042539;28;20493;-62
2021/12/21 01:43:06;;;;;;;16.30;11.53;;;-2.70;99.90;;;;;;5042487;28;20471;-63
2021/12/21 01:51:04;;;;;;;18.33;11.90;;;-2.70;99.90;;;;;;5042662;28;20466;-63
2021/12/21 01:53:31;;;;;;;19.73;10.43;;;-2.80;99.90;;;;;;5042376;28;20464;-63
2021/12/21 01:55:59;;;;;;;18.87;10.70;;;-2.90;99.90;;;;;;5042455;28;20463;-63
2021/12/21 01:58:27;;;;;;;19.13;9.93;;;-2.90;99.90;;;;;;5042302;28;20440;-63
2021/12/21 02:00:54;;;;;;;22.57;11.70;;;-3.00;99.90;;;;;;5042512;28;20563;-63
2021/12/21 02:03:21;;;;;;;16.20;10.97;;;-3.00;99.90;;;;;;5042267;28;20460;-63
2021/12/21 02:05:47;;;;;;;18.70;11.70;;;-3.00;99.90;;;;;;5042565;28;20474;-63
2021/12/21 02:08:15;;;;;;;18.70;11.57;;;-3.00;99.90;;;;;;5041815;28;20480;-63
2021/12/21 02:10:42;;;;;;;15.83;11.93;;;-3.00;99.90;;;;;;5043260;28;20457;-63
2021/12/21 02:13:09;;;;;;;25.00;12.13;;;-3.00;99.90;;;;;;5043405;28;20460;-63
2021/12/21 02:15:37;;;;;;;15.93;12.17;;;-3.00;99.90;;;;;;5046284;28;20444;-63
2021/12/21 02:20:55;;;;;;;16.07;10.20;;;-3.00;99.90;;;;;;5048304;28;20510;-64
2021/12/21 02:23:28;;;;;;;23.07;11.37;;;-2.90;99.90;;;;;;5048099;28;20464;-63
2021/12/21 02:26:10;;;;;;;16.00;11.87;;;-2.90;99.90;;;;;;5048108;28;20543;-63
2021/12/21 02:31:18;;;;;;;20.63;12.70;;;-2.80;99.90;;;;;;5040360;28;20436;-64
2021/12/21 02:33:47;;;;;;;18.40;12.67;;;-2.70;99.90;;;;;;5051781;28;21286;-63
2021/12/21 02:36:16;;;;;;;17.23;11.60;;;-2.80;99.90;;;;;;5051761;28;20448;-62
2021/12/21 02:38:42;;;;;;;19.30;11.90;;;-2.80;99.90;;;;;;5051514;28;20448;-64
2021/12/21 02:41:09;;;;;;;20.53;12.13;;;-2.80;99.90;;;;;;5051708;28;20441;-64
2021/12/21 02:43:38;;;;;;;20.40;11.77;;;-2.80;99.90;;;;;;5051260;28;20492;-65
2021/12/21 02:46:05;;;;;;;14.70;10.80;;;-2.80;99.90;;;;;;5051601;28;20448;-62
2021/12/21 02:48:33;;;;;;;19.27;11.40;;;-2.80;99.90;;;;;;5051461;28;20570;-64
2021/12/21 02:51:00;;;;;;;15.60;11.90;;;-2.90;99.90;;;;;;5051636;28;20455;-65
2021/12/21 02:53:28;;;;;;;18.00;12.50;;;-3.00;99.90;;;;;;5051664;28;20460;-64
2021/12/21 02:55:55;;;;;;;18.93;12.60;;;-3.00;99.90;;;;;;5051572;28;20448;-64
2021/12/21 02:58:22;;;;;;;19.97;10.60;;;-3.10;99.90;;;;;;5050908;28;20836;-64
2021/12/21 03:00:49;;;;;;;24.13;11.90;;;-3.10;99.90;;;;;;5050979;28;20462;-63
2021/12/21 03:03:16;;;;;;;18.07;12.47;;;-3.10;99.90;;;;;;5051127;28;20475;-64
2021/12/21 03:05:49;;;;;;;21.40;11.70;;;-3.00;99.90;;;;;;5050916;28;20440;-63
2021/12/21 03:08:19;;;;;;;19.83;11.00;;;-3.00;99.90;;;;;;5050586;28;20488;-63
2021/12/21 03:11:02;;;;;;;18.90;12.10;;;-3.00;99.90;;;;;;5051103;28;20551;-63
2021/12/21 03:16:22;;;;;;;18.17;11.50;;;-3.00;99.90;;;;;;5025787;28;20435;-63
2021/12/21 03:18:49;;;;;;;15.30;11.50;;;-2.90;99.90;;;;;;5051061;28;20452;-63
2021/12/21 03:21:16;;;;;;;20.07;12.60;;;-2.90;99.90;;;;;;5050741;28;20531;-63
2021/12/21 03:23:43;;;;;;;18.27;10.87;;;-3.00;99.90;;;;;;5050768;28;20479;-62
2021/12/21 03:26:11;;;;;;;17.73;12.43;;;-3.00;99.90;;;;;;5050532;28;20447;-63
2021/12/21 03:28:38;;;;;;;17.90;11.67;;;-3.00;99.90;;;;;;5050509;28;20494;-63
2021/12/21 03:31:06;;;;;;;15.30;10.47;;;-3.10;99.90;;;;;;5050798;28;20444;-63
2021/12/21 03:33:33;;;;;;;14.47;10.53;;;-3.10;99.90;;;;;;5050476;28;20471;-63
2021/12/21 03:36:02;;;;;;;15.50;12.17;;;-3.10;99.90;;;;;;5050690;28;20449;-63
2021/12/21 03:38:30;;;;;;;12.93;10.43;;;-3.10;99.90;;;;;;5050458;28;20449;-64
2021/12/21 03:41:02;;;;;;;15.60;10.53;;;-3.00;99.90;;;;;;5050827;28;20445;-64
2021/12/21 03:43:32;;;;;;;15.57;11.27;;;-3.00;99.90;;;;;;5049093;28;20821;-64
2021/12/21 03:46:06;;;;;;;19.33;11.27;;;-3.10;99.90;;;;;;5050422;28;20445;-63
2021/12/21 03:48:33;;;;;;;19.57;10.23;;;-3.20;99.90;;;;;;5050099;28;20483;-63
2021/12/21 03:51:00;;;;;;;16.37;11.33;;;-3.30;99.90;;;;;;5050375;28;20471;-63
2021/12/21 03:53:27;;;;;;;14.93;11.10;;;-3.20;99.90;;;;;;5050160;28;20990;-63
2021/12/21 03:56:04;;;;;;;12.83;10.03;;;-3.20;99.90;;;;;;5050181;28;20456;-63
2021/12/21 03:58:33;;;;;;;18.93;11.23;;;-3.20;99.90;;;;;;5049933;28;20443;-64
2021/12/21 04:00:59;;;;;;;12.40;8.90;;;-3.20;99.90;;;;;;5050350;28;20460;-66
2021/12/21 04:03:26;;;;;;;16.10;10.30;;;-3.20;99.90;;;;;;5050317;28;20479;-62
2021/12/21 04:05:53;;;;;;;13.70;10.03;;;-3.30;99.90;;;;;;5050100;28;20458;-63
2021/12/21 04:08:20;;;;;;;18.80;11.23;;;-3.20;99.90;;;;;;5049602;28;20484;-64
2021/12/21 04:10:47;;;;;;;18.90;11.07;;;-3.20;99.90;;;;;;5049811;28;20959;-63
2021/12/21 04:13:14;;;;;;;15.70;10.10;;;-3.10;99.90;;;;;;5049733;28;20465;-63
2021/12/21 04:15:43;;;;;;;14.93;9.30;;;-3.10;99.90;;;;;;5049739;28;20447;-64
2021/12/21 04:18:11;;;;;;;15.93;9.07;;;-3.10;99.90;;;;;;5049487;28;20498;-63
2021/12/21 04:20:38;;;;;;;17.70;10.90;;;-3.20;99.90;;;;;;5049790;28;20538;-63
2021/12/21 04:23:05;;;;;;;20.13;10.70;;;-3.30;99.90;;;;;;5049703;28;20472;-62
2021/12/21 04:25:33;;;;;;;14.90;9.47;;;-3.30;99.90;;;;;;5049346;28;20836;-64
2021/12/21 04:28:00;;;;;;;20.43;10.63;;;-3.30;99.90;;;;;;5049295;28;20486;-63
2021/12/21 04:30:27;;;;;;;17.17;11.07;;;-3.30;99.90;;;;;;5049340;28;20960;-63
2021/12/21 04:32:56;;;;;;;17.60;9.87;;;-3.30;99.90;;;;;;5049517;28;20479;-63
2021/12/21 04:35:24;;;;;;;14.40;10.13;;;-3.30;99.90;;;;;;5049375;28;20462;-63
2021/12/21 04:37:57;;;;;;;19.67;10.27;;;-3.30;99.90;;;;;;5048933;28;20537;-64
2021/12/21 04:40:36;;;;;;;14.53;8.70;;;-3.30;99.90;;;;;;5049323;28;20459;-63
2021/12/21 04:43:03;;;;;;;16.00;10.60;;;-3.40;99.90;;;;;;5049178;28;20505;-64
2021/12/21 04:45:30;;;;;;;16.53;10.57;;;-3.50;99.90;;;;;;5048885;28;20986;-63
2021/12/21 04:47:58;;;;;;;15.63;10.17;;;-3.50;99.90;;;;;;5048737;28;20483;-64
2021/12/21 04:50:25;;;;;;;17.83;9.70;;;-3.60;99.90;;;;;;5048947;28;20949;-63
2021/12/21 04:52:52;;;;;;;17.47;9.50;;;-3.60;99.90;;;;;;5048692;28;20459;-62
2021/12/21 04:55:19;;;;;;;20.93;9.93;;;-3.60;99.90;;;;;;5048848;28;20456;-63
2021/12/21 04:57:46;;;;;;;20.73;9.93;;;-3.60;99.90;;;;;;5048581;28;20448;-63
2021/12/21 05:00:14;;;;;;;16.83;9.53;;;-3.50;99.90;;;;;;5048795;28;20455;-63
2021/12/21 05:02:41;;;;;;;15.80;10.57;;;-3.60;99.90;;;;;;5048932;28;20466;-62
2021/12/21 05:05:10;;;;;;;15.40;10.27;;;-3.60;99.90;;;;;;5048666;28;20460;-62
2021/12/21 05:07:39;;;;;;;16.10;10.77;;;-3.60;99.90;;;;;;5047921;28;21200;-63
2021/12/21 05:10:09;;;;;;;12.90;9.43;;;-3.50;99.90;;;;;;5040192;28;20440;-63
2021/12/21 05:12:36;;;;;;;13.80;10.07;;;-3.50;99.90;;;;;;5048899;28;20476;-64
2021/12/21 05:15:05;;;;;;;18.50;10.10;;;-3.40;99.90;;;;;;5049110;28;20456;-63
2021/12/21 05:17:32;;;;;;;14.27;9.53;;;-3.40;99.90;;;;;;5048390;28;20447;-63
2021/12/21 05:19:58;;;;;;;16.17;9.10;;;-3.30;99.90;;;;;;5048571;28;20448;-64
2021/12/21 05:22:27;;;;;;;14.20;9.00;;;-3.40;99.90;;;;;;5048389;28;20830;-63
2021/12/21 05:24:54;;;;;;;11.93;8.90;;;-3.40;99.90;;;;;;5048735;28;20934;-63
2021/12/21 05:27:23;;;;;;;15.67;9.90;;;-3.50;99.90;;;;;;5048299;28;20852;-65
2021/12/21 05:29:49;;;;;;;15.90;9.43;;;-3.60;99.90;;;;;;5048354;28;20456;-63
2021/12/21 05:32:16;;;;;;;14.80;8.90;;;-3.60;99.90;;;;;;5045266;28;20466;-66
2021/12/21 05:34:43;;;;;;;13.30;9.77;;;-3.70;99.90;;;;;;5036993;28;20484;-62
2021/12/21 05:37:10;;;;;;;17.73;10.50;;;-3.70;99.90;;;;;;5037619;28;21014;-64
2021/12/21 05:39:50;;;;;;;20.60;9.30;;;-3.70;99.90;;;;;;5038387;28;20444;-64
2021/12/21 05:42:17;;;;;;;16.43;9.80;;;-3.70;99.90;;;;;;5036871;28;20468;-63
2021/12/21 05:44:43;;;;;;;18.83;10.63;;;-3.70;99.90;;;;;;5044373;28;20491;-63
2021/12/21 05:47:10;;;;;;;14.77;8.20;;;-3.70;99.90;;;;;;5044989;28;20448;-68
2021/12/21 05:49:37;;;;;;;16.70;10.43;;;-3.70;99.90;;;;;;5032728;28;20447;-63
2021/12/21 05:52:05;;;;;;;14.10;10.33;;;-3.80;99.90;;;;;;5035112;28;20457;-63
2021/12/21 05:54:32;;;;;;;14.23;9.43;;;-3.80;99.90;;;;;;5040127;28;20441;-64
2021/12/21 05:57:00;;;;;;;16.33;9.90;;;-3.80;99.90;;;;;;5043898;28;20448;-63
2021/12/21 05:59:27;;;;;;;13.10;9.87;;;-3.80;99.90;;;;;;5042003;28;20445;-63
2021/12/21 06:01:54;;;;;;;14.07;9.60;;;-3.80;99.90;;;;;;5047327;28;20452;-64
2021/12/21 06:04:23;;;;;;;13.70;9.60;;;-3.80;99.90;;;;;;5045919;28;20457;-64
2021/12/21 06:06:50;;;;;;;15.77;10.47;;;-3.70;99.90;;;;;;5042160;28;20522;-64
2021/12/21 06:09:17;;;;;;;13.77;10.63;;;-3.60;99.90;;;;;;5046642;28;20487;-64
2021/12/21 06:11:50;;;;;;;19.03;10.23;;;-3.60;99.90;;;;;;5040012;28;20522;-63
2021/12/21 06:14:36;;;;;;;16.50;9.83;;;-3.70;99.90;;;;;;5035524;28;20446;-63
2021/12/21 06:22:47;;;;;;;15.60;9.40;;;-3.70;99.90;;;;;;5025500;28;20444;-64
2021/12/21 06:25:36;;;;;;;15.67;8.90;;;-3.70;99.90;;;;;;5034278;28;20437;-60
2021/12/21 06:28:03;;;;;;;13.53;9.00;;;-3.90;99.90;;;;;;5045219;28;20506;-64
2021/12/21 06:30:32;;;;;;;17.47;8.77;;;-3.90;99.90;;;;;;5046060;28;20454;-64
2021/12/21 06:33:00;;;;;;;14.50;9.47;;;-3.90;99.90;;;;;;5047452;28;20478;-64
2021/12/21 06:35:27;;;;;;;14.43;9.80;;;-3.90;99.90;;;;;;5047393;28;20453;-64
2021/12/21 06:37:54;;;;;;;15.80;9.60;;;-3.80;99.90;;;;;;5046996;28;20450;-64
2021/12/21 06:40:22;;;;;;;15.53;10.30;;;-3.80;99.90;;;;;;5047295;28;20446;-64
2021/12/21 06:42:50;;;;;;;18.13;10.07;;;-3.80;99.90;;;;;;5047447;28;21011;-64
2021/12/21 06:45:31;;;;;;;14.43;8.67;;;-3.80;99.90;;;;;;5047069;28;20544;-62
2021/12/21 06:53:29;;;;;;;11.40;8.73;;;-3.90;99.90;;;;;;5047047;28;20916;-62
2021/12/21 06:55:56;;;;;;;15.50;9.13;;;-3.80;99.90;;;;;;5047182;28;20823;-62
2021/12/21 06:58:22;;;;;;;13.20;9.20;;;-3.80;99.90;;;;;;5046760;28;20786;-62
2021/12/21 07:00:52;;;;;;;16.70;10.03;;;-3.80;99.90;;;;;;5047623;28;20458;-62
2021/12/21 07:03:21;;;;;;;17.97;11.60;;;-3.80;99.90;;;;;;5047035;28;20472;-62
2021/12/21 07:05:49;;;;;;;17.30;11.40;;;-3.80;99.90;;;;;;5047268;28;20459;-62
2021/12/21 07:08:20;;;;;;;17.57;9.73;;;-3.90;99.90;;;;;;5046761;28;20495;-61
2021/12/21 07:10:54;;;;;;;15.23;9.60;;;-3.90;99.90;;;;;;5046928;28;20475;-62
2021/12/21 07:18:52;;;;;;;14.00;9.07;;;-3.90;99.90;;;;;;5050566;28;20463;-62
2021/12/21 07:21:19;;;;;;;17.83;9.03;;;-3.90;99.90;;;;;;5050377;28;20456;-61
2021/12/21 07:23:46;;;;;;;19.53;9.23;;;-4.00;99.90;;;;;;5050665;28;20555;-62
2021/12/21 07:26:13;;;;;;;17.70;9.97;;;-4.00;99.90;;;;;;5050372;28;20459;-61
2021/12/21 07:28:40;;;;;;;15.80;9.60;;;-4.00;99.90;;;;;;5050177;28;21041;-63
2021/12/21 07:31:06;;;;;;;13.60;9.03;;;-4.00;99.90;;;;;;5050168;28;20482;-63
2021/12/21 07:33:33;;;;;;;13.70;8.83;;;-4.10;99.90;;;;;;5050313;28;20548;-63
2021/12/21 07:36:02;;;;;;;17.83;10.20;;;-4.10;99.90;;;;;;5049977;28;20461;-63
2021/12/21 07:38:32;;;;;;;13.33;9.00;;;-4.00;99.90;;;;;;5049830;28;20455;-63
2021/12/21 07:40:59;;;;;;;14.13;9.90;;;-4.00;99.90;;;;;;5050199;28;20484;-62
2021/12/21 07:43:26;;;;;;;18.47;10.07;;;-4.10;99.90;;;;;;5049982;28;20469;-63
2021/12/21 07:45:53;;;;;;;12.83;9.70;;;-4.10;99.90;;;;;;5049882;28;20451;-63
2021/12/21 07:48:21;;;;;;;11.63;8.70;;;-4.00;99.90;;;;;;5050028;28;20490;-63
2021/12/21 07:50:49;;;;;;;15.43;10.33;;;-4.00;99.90;;;;;;5050046;28;20450;-63
2021/12/21 07:53:18;;;;;;;16.03;10.43;;;-4.00;99.90;;;;;;5049991;28;20479;-63
2021/12/21 07:55:45;;;;;;;13.83;9.60;;;-3.90;99.90;;;;;;5049984;28;20461;-63
2021/12/21 07:58:12;;;;;;;21.30;10.23;;;-3.90;99.90;;;;;;5049384;28;20448;-63
2021/12/21 08:00:40;;;;;;;16.23;10.33;;;-3.90;99.90;;;;;;5049734;28;20465;-63
2021/12/21 08:03:07;;;;;;;24.37;9.50;;;-3.80;99.90;;;;;;5049479;28;20475;-63
2021/12/21 08:05:35;;;;;;;15.67;10.00;;;-3.70;99.90;;;;;;5049487;28;20452;-63
2021/12/21 08:08:11;;;;;;;14.87;9.60;;;-3.70;99.90;;;;;;5049102;28;20452;-63
2021/12/21 08:10:45;;;;;;;19.40;10.20;;;-3.60;99.90;;;;;;5049622;28;20444;-62
2021/12/21 08:13:12;;;;;;;16.10;9.13;;;-3.60;99.90;;;;;;5049507;28;20469;-63
2021/12/21 08:15:39;;;;;;;15.33;9.97;;;-3.40;99.90;;;;;;5049599;28;20452;-63
2021/12/21 08:18:06;;;;;;;17.10;10.70;;;-3.30;99.90;;;;;;5049367;28;20445;-62
2021/12/21 08:20:33;;;;;;;14.03;9.80;;;-3.30;99.90;;;;;;5049304;28;20953;-63
2021/12/21 08:23:00;;;;;;;16.10;10.90;;;-3.20;99.90;;;;;;5049355;28;20477;-63
2021/12/21 08:25:28;;;;;;;16.40;12.17;;;-3.10;99.90;;;;;;5049222;28;20448;-63
2021/12/21 08:27:57;;;;;;;19.67;12.87;;;-3.00;99.90;;;;;;5048850;28;20452;-63
2021/12/21 08:30:26;;;;;;;20.53;13.30;;;-2.90;99.90;;;;;;5048927;28;20466;-63
2021/12/21 08:32:53;;;;;;;19.63;14.50;;;-2.80;99.90;;;;;;5049209;28;20464;-63
2021/12/21 08:35:20;;;;;;;20.77;14.80;;;-2.70;99.90;;;;;;5049249;28;20448;-63
2021/12/21 08:37:51;;;;;;;16.80;11.43;;;-2.50;99.90;;;;;;5049086;28;20448;-63
2021/12/21 08:40:18;;;;;;;14.13;11.90;;;-2.40;99.90;;;;;;5048896;28;20445;-63
2021/12/21 08:42:47;;;;;;;19.33;12.03;;;-2.20;99.90;;;;;;5048879;28;20465;-63
2021/12/21 08:45:15;;;;;;;16.00;11.73;;;-2.10;99.90;;;;;;5048904;28;20461;-64
2021/12/21 08:47:42;;;;;;;26.90;12.50;;;-2.00;99.90;;;;;;5048366;28;20448;-63
2021/12/21 08:50:11;;;;;;;20.57;12.77;;;-1.90;99.90;;;;;;5048745;28;20490;-63
2021/12/21 08:52:39;;;;;;;20.43;11.60;;;-1.80;99.90;;;;;;5048773;28;20476;-63
2021/12/21 08:55:09;;;;;;;20.37;12.03;;;-1.70;99.90;;;;;;5048756;28;20535;-63
2021/12/21 08:57:36;;;;;;;21.07;12.07;;;-1.70;99.90;;;;;;5048412;28;20943;-64
2021/12/21 09:00:06;;;;;;;23.30;13.70;;;-1.60;99.90;;;;;;5048899;28;20444;-64
2021/12/21 09:02:36;;;;;;;14.90;11.50;;;-1.60;99.90;;;;;;5048518;28;20469;-63
2021/12/21 09:05:07;;;;;;;22.50;11.20;;;-1.60;99.90;;;;;;5048552;28;20518;-63
2021/12/21 09:07:34;;;;;;;18.33;11.93;;;-1.60;99.90;;;;;;5048082;28;20449;-64
2021/12/21 09:10:01;;;;;;;16.43;12.47;;;-1.60;99.90;;;;;;5048601;28;20488;-64
2021/12/21 09:12:28;;;;;;;14.73;11.40;;;-1.60;99.90;;;;;;5048273;28;21005;-64
2021/12/21 09:14:54;;;;;;;13.67;11.20;;;-1.50;99.90;;;;;;5048529;28;20443;-65
2021/12/21 09:17:21;;;;;;;16.83;12.43;;;-1.50;99.90;;;;;;5047998;28;20451;-64
2021/12/21 09:19:50;;;;;;;16.53;10.60;;;-1.50;99.90;;;;;;5048281;28;21023;-64
2021/12/21 09:22:16;;;;;;;16.03;10.90;;;-1.40;99.90;;;;;;5048059;28;20464;-64
2021/12/21 09:24:43;;;;;;;16.57;10.90;;;-1.40;99.90;;;;;;5048274;28;20466;-64
2021/12/21 09:27:11;;;;;;;16.23;12.17;;;-1.30;99.90;;;;;;5048069;28;20454;-64
2021/12/21 09:29:38;;;;;;;15.57;10.13;;;-1.30;99.90;;;;;;5048269;28;20488;-65
2021/12/21 09:32:06;;;;;;;16.40;12.10;;;-1.20;99.90;;;;;;5048608;28;20454;-64
2021/12/21 09:34:33;;;;;;;18.93;12.27;;;-1.30;99.90;;;;;;5049015;28;20455;-64
2021/12/21 09:37:02;;;;;;;15.37;11.70;;;-1.20;99.90;;;;;;5047915;28;20451;-64
2021/12/21 09:39:29;;;;;;;15.10;12.00;;;-1.10;99.90;;;;;;5048060;28;20535;-65
2021/12/21 09:41:55;;;;;;;17.43;12.20;;;-1.10;99.90;;;;;;5047493;28;20448;-64
2021/12/21 09:44:22;;;;;;;13.90;10.53;;;-1.00;99.90;;;;;;5048054;28;20460;-65
2021/12/21 09:46:49;;;;;;;14.50;10.40;;;-0.90;99.90;;;;;;5047665;28;20488;-64
2021/12/21 09:49:16;;;;;;;14.60;11.20;;;-0.80;99.90;;;;;;5047899;28;20823;-65
2021/12/21 09:51:43;;;;;;;14.67;11.00;;;-0.70;99.90;;;;;;5048138;28;20444;-64
2021/12/21 09:54:11;;;;;;;13.03;11.10;;;-0.70;99.90;;;;;;5048469;28;20471;-62
2021/12/21 09:56:38;;;;;;;18.07;11.97;;;-0.60;99.90;;;;;;5048165;28;20474;-62
2021/12/21 09:59:05;;;;;;;18.57;11.73;;;-0.60;99.90;;;;;;5048278;28;20436;-61
2021/12/21 10:01:32;;;;;;;13.50;10.57;;;-0.50;99.90;;;;;;5048062;28;20440;-62
2021/12/21 10:03:58;;;;;;;19.37;11.70;;;-0.40;99.90;;;;;;5047594;28;20969;-62
2021/12/21 10:06:25;;;;;;;17.43;11.33;;;-0.30;99.90;;;;;;5047598;28;20473;-61
2021/12/21 10:08:52;;;;;;;20.10;13.17;;;-0.10;99.90;;;;;;5047712;28;20481;-63
2021/12/21 10:11:23;;;;;;;24.27;14.50;;;0.00;99.90;;;;;;5047883;28;20437;-63
2021/12/21 10:13:51;;;;;;;19.17;13.23;;;0.30;99.90;;;;;;5047862;28;20856;-63
2021/12/21 10:16:21;;;;;;;14.87;10.77;;;0.50;99.90;;;;;;5047096;28;20987;-62
2021/12/21 10:18:49;;;;;;;20.00;11.90;;;0.60;99.90;;;;;;5048008;28;20436;-64
2021/12/21 10:21:18;;;;;;;23.53;12.20;;;0.90;99.90;;;;;;5047726;28;20452;-63
2021/12/21 10:23:47;;;;;;;13.17;10.23;;;1.40;99.90;;;;;;5047847;28;20543;-64
2021/12/21 10:26:22;;;;;;;13.80;8.80;;;1.90;99.90;;;;;;5047389;28;20961;-64
2021/12/21 10:28:50;;;;;;;15.67;10.83;;;2.40;99.90;;;;;;5047370;28;20538;-64
2021/12/21 10:31:25;;;;;;;13.07;10.00;;;2.80;99.90;;;;;;5047545;28;20941;-64
2021/12/21 10:33:53;;;;;;;17.43;9.30;;;3.00;99.90;;;;;;5047915;28;20459;-64
2021/12/21 10:36:20;;;;;;;13.07;9.90;;;3.20;99.90;;;;;;5047555;28;20550;-64
2021/12/21 10:38:52;;;;;;;10.70;8.93;;;3.60;99.90;;;;;;5047584;28;20930;-64
2021/12/21 10:41:23;;;;;;;14.83;10.23;;;3.70;99.90;;;;;;5047367;28;20444;-64
2021/12/21 10:43:58;;;;;;;14.23;8.97;;;3.30;99.90;;;;;;5047505;28;20475;-64
2021/12/21 10:46:26;;;;;;;11.60;8.90;;;2.80;99.90;;;;;;5047140;28;20457;-63
2021/12/21 10:48:53;;;;;;;9.60;8.00;;;2.40;99.90;;;;;;5047092;28;20555;-64
2021/12/21 10:51:20;;;;;;;13.40;8.47;;;2.10;99.90;;;;;;5047427;28;20450;-64
2021/12/21 10:53:48;;;;;;;10.50;8.93;;;1.80;99.90;;;;;;5051032;28;20467;-64
2021/12/21 10:56:17;;;;;;;20.63;9.80;;;1.70;99.90;;;;;;5050993;28;20866;-63
2021/12/21 10:58:46;;;;;;;9.80;8.40;;;1.70;99.90;;;;;;5051134;28;20455;-64
2021/12/21 11:01:16;;;;;;;12.70;8.00;;;1.80;99.90;;;;;;5050954;28;20486;-64
2021/12/21 11:03:49;;;;;;;12.63;8.37;;;1.80;99.90;;;;;;5050910;28;20474;-64
2021/12/21 11:06:19;;;;;;;13.63;8.83;;;1.80;99.90;;;;;;5049727;28;20874;-64
2021/12/21 11:08:48;;;;;;;9.93;7.80;;;1.80;99.90;;;;;;5044537;28;20531;-65
2021/12/21 11:11:26;;;;;;;11.10;7.40;;;1.80;99.90;;;;;;5041233;28;20502;-65
2021/12/21 11:14:08;;;;;;;12.47;8.50;;;1.70;99.90;;;;;;5038572;28;20475;-66
2021/12/21 11:16:40;;;;;;;9.93;8.20;;;1.60;99.90;;;;;;5042176;28;20460;-65
2021/12/21 11:19:08;;;;;;;11.40;8.10;;;1.60;99.90;;;;;;5047814;28;20461;-66
2021/12/21 11:21:36;;;;;;;11.67;7.67;;;1.60;99.90;;;;;;5048081;28;20452;-66
2021/12/21 11:24:06;;;;;;;12.57;7.63;;;1.50;99.90;;;;;;5046355;28;20464;-65
2021/12/21 11:26:35;;;;;;;13.03;7.77;;;1.50;99.90;;;;;;5043112;28;20441;-66
2021/12/21 11:29:05;;;;;;;11.47;7.23;;;1.60;99.90;;;;;;5042358;28;20522;-65
2021/12/21 11:31:37;;;;;;;10.67;7.37;;;1.60;99.90;;;;;;5049223;28;20460;-65
2021/12/21 11:34:07;;;;;;;9.80;8.10;;;1.70;99.90;;;;;;5049020;28;20490;-65
2021/12/21 11:39:20;;;;;;;9.37;6.90;;;1.70;99.90;;;;;;5048989;28;20432;-65
2021/12/21 11:41:47;;;;;;;13.80;8.60;;;1.70;99.90;;;;;;5030321;28;20473;-65
2021/12/21 11:44:22;;;;;;;10.27;6.77;;;1.70;99.90;;;;;;5043859;28;20478;-66
2021/12/21 11:46:54;;;;;;;13.33;7.60;;;1.70;99.90;;;;;;5040680;28;20446;-66
2021/12/21 11:49:31;;;;;;;10.53;7.40;;;1.80;99.90;;;;;;5048248;28;20510;-65
2021/12/21 11:52:13;;;;;;;8.93;6.53;;;1.90;99.90;;;;;;5047990;28;20931;-65
2021/12/21 11:54:49;;;;;;;12.50;7.60;;;1.90;99.90;;;;;;5028088;28;20874;-64
2021/12/21 11:57:18;;;;;;;9.23;7.10;;;1.90;99.90;;;;;;5028435;28;20448;-66
2021/12/21 11:59:46;;;;;;;11.33;6.93;;;2.00;99.90;;;;;;5038210;28;20452;-66
2021/12/21 12:02:13;;;;;;;9.50;6.50;;;1.90;99.90;;;;;;5040653;28;20812;-65
2021/12/21 12:04:40;;;;;;;8.93;7.40;;;2.00;99.90;;;;;;5038213;28;20460;-65
2021/12/21 12:07:17;;;;;;;9.57;6.70;;;2.00;99.90;;;;;;5039808;28;20523;-64
2021/12/21 12:09:44;;;;;;;9.20;6.13;;;2.10;99.90;;;;;;5027971;28;20476;-63
2021/12/21 12:12:14;;;;;;;13.90;6.87;;;2.20;99.90;;;;;;5046239;28;20468;-64
2021/12/21 12:14:42;;;;;;;8.73;5.90;;;2.20;99.90;;;;;;5048602;28;20462;-65
2021/12/21 12:17:15;;;;;;;9.73;5.60;;;2.20;99.90;;;;;;5046586;28;20459;-66
2021/12/21 12:19:50;;;;;;;9.30;6.07;;;2.30;99.90;;;;;;5047083;28;20943;-65
2021/12/21 12:22:17;;;;;;;7.10;5.77;;;2.40;99.90;;;;;;5049539;28;20464;-65
2021/12/21 12:24:46;;;;;;;12.53;5.77;;;2.30;99.90;;;;;;5049354;28;20447;-65
2021/12/21 12:27:16;;;;;;;9.33;5.40;;;2.40;99.90;;;;;;5048976;28;20445;-66
2021/12/21 12:29:45;;;;;;;13.33;6.50;;;2.50;99.90;;;;;;5048912;28;20565;-65
2021/12/21 12:32:15;;;;;;;10.10;6.13;;;2.50;99.90;;;;;;5048001;28;20822;-65
2021/12/21 12:34:43;;;;;;;9.23;6.37;;;2.60;99.90;;;;;;5043745;28;20465;-65
2021/12/21 12:37:19;;;;;;;11.57;5.97;;;2.60;99.90;;;;;;5046905;28;20536;-65
2021/12/21 12:39:49;;;;;;;8.33;6.00;;;2.50;99.90;;;;;;5027278;28;20445;-65
2021/12/21 12:42:20;;;;;;;8.23;5.80;;;2.50;99.90;;;;;;5027050;28;20468;-65
2021/12/21 12:44:49;;;;;;;8.23;5.30;;;2.50;99.90;;;;;;5027279;28;20464;-65
2021/12/21 12:47:18;;;;;;;7.50;6.40;;;2.50;99.90;;;;;;5026184;28;20449;-66
2021/12/21 12:49:51;;;;;;;6.97;5.43;;;2.60;99.90;;;;;;5026015;28;21063;-64
2021/12/21 12:52:24;;;;;;;6.70;5.40;;;2.60;99.90;;;;;;5026294;28;20481;-65
2021/12/21 12:54:53;;;;;;;11.70;6.17;;;2.70;99.90;;;;;;5032327;28;21022;-65
2021/12/21 12:57:33;;;;;;;8.67;5.93;;;2.70;99.90;;;;;;5046763;28;20448;-66
2021/12/21 13:00:10;;;;;;;9.53;5.50;;;2.70;99.90;;;;;;5045919;28;20454;-65
2021/12/21 13:02:39;;;;;;;8.40;6.10;;;2.70;99.90;;;;;;5047963;28;20831;-64
2021/12/21 13:05:09;;;;;;;13.10;6.17;;;2.70;99.90;;;;;;5048319;28;20538;-63
2021/12/21 13:07:36;;;;;;;6.53;4.83;;;2.70;99.90;;;;;;5048276;28;20452;-65
2021/12/21 13:10:09;;;;;;;6.57;5.63;;;2.80;99.90;;;;;;5048085;28;20476;-64
2021/12/21 13:12:36;;;;;;;8.63;5.13;;;2.80;99.90;;;;;;5048286;28;20469;-64
2021/12/21 13:15:04;;;;;;;9.40;5.33;;;2.80;99.90;;;;;;5037447;28;20537;-66
2021/12/21 13:17:31;;;;;;;8.47;5.50;;;2.80;99.90;;;;;;5040045;28;20534;-65
2021/12/21 13:19:59;;;;;;;6.53;5.20;;;2.80;99.90;;;;;;5046323;28;20528;-66
2021/12/21 13:22:27;;;;;;;9.93;5.17;;;2.90;99.90;;;;;;5028812;28;20464;-66
2021/12/21 13:24:55;;;;;;;7.00;5.10;;;2.90;99.90;;;;;;5026428;28;20612;-66
2021/12/21 13:27:24;;;;;;;8.60;5.63;;;2.80;99.90;;;;;;5043357;28;20447;-66